sensor_id;sensor_type;location;lat;lon;timestamp;pressure;altitude;pressure_sealevel;temperature;humidity
79538;BME280;68989;52.032;5.152;2023-05-10T00:01:27;100961.28;;;19.85;55.71
79538;BME280;68989;52.032;5.152;2023-05-10T00:03:54;100960.17;;;19.83;55.77
79538;BME280;68989;52.032;5.152;2023-05-10T00:06:21;100956.71;;;19.82;55.78
79538;BME280;68989;52.032;5.152;2023-05-10T00:08:48;100955.90;;;19.80;55.73
79538;BME280;68989;52.032;5.152;2023-05-10T00:11:15;100954.86;;;19.78;55.79
79538;BME280;68989;52.032;5.152;2023-05-10T00:13:42;100954.45;;;19.77;55.82
79538;BME280;68989;52.032;5.152;2023-05-10T00:16:09;100954.36;;;19.76;55.86
79538;BME280;68989;52.032;5.152;2023-05-10T00:18:36;100951.24;;;19.76;55.95
79538;BME280;68989;52.032;5.152;2023-05-10T00:21:04;100951.04;;;19.76;55.95
79538;BME280;68989;52.032;5.152;2023-05-10T00:23:31;100953.61;;;19.75;56.13
79538;BME280;68989;52.032;5.152;2023-05-10T00:25:58;100952.14;;;19.75;56.18
79538;BME280;68989;52.032;5.152;2023-05-10T00:28:27;100954.46;;;19.76;56.17
79538;BME280;68989;52.032;5.152;2023-05-10T00:30:54;100957.20;;;19.77;56.13
79538;BME280;68989;52.032;5.152;2023-05-10T00:33:21;100956.41;;;19.78;56.15
79538;BME280;68989;52.032;5.152;2023-05-10T00:35:48;100950.77;;;19.78;56.16
79538;BME280;68989;52.032;5.152;2023-05-10T00:38:15;100950.25;;;19.77;56.11
79538;BME280;68989;52.032;5.152;2023-05-10T00:40:42;100949.68;;;19.76;56.10
79538;BME280;68989;52.032;5.152;2023-05-10T00:43:09;100952.56;;;19.75;56.08
79538;BME280;68989;52.032;5.152;2023-05-10T00:45:36;100952.32;;;19.74;56.00
79538;BME280;68989;52.032;5.152;2023-05-10T00:48:04;100952.98;;;19.73;55.91
79538;BME280;68989;52.032;5.152;2023-05-10T00:50:32;100948.30;;;19.71;55.85
79538;BME280;68989;52.032;5.152;2023-05-10T00:52:59;100952.49;;;19.68;55.91
79538;BME280;68989;52.032;5.152;2023-05-10T00:55:27;100964.44;;;19.66;55.84
79538;BME280;68989;52.032;5.152;2023-05-10T00:57:55;100967.41;;;19.64;55.78
79538;BME280;68989;52.032;5.152;2023-05-10T01:01:49;100967.13;;;19.59;55.77
79538;BME280;68989;52.032;5.152;2023-05-10T01:04:16;100965.66;;;19.58;55.84
79538;BME280;68989;52.032;5.152;2023-05-10T01:06:43;100966.75;;;19.57;55.91
79538;BME280;68989;52.032;5.152;2023-05-10T01:09:10;100963.25;;;19.56;56.05
79538;BME280;68989;52.032;5.152;2023-05-10T01:11:38;100962.44;;;19.55;56.04
79538;BME280;68989;52.032;5.152;2023-05-10T01:14:06;100960.84;;;19.55;56.16
79538;BME280;68989;52.032;5.152;2023-05-10T01:16:37;100957.73;;;19.56;56.23
79538;BME280;68989;52.032;5.152;2023-05-10T01:19:08;100960.93;;;19.56;56.12
79538;BME280;68989;52.032;5.152;2023-05-10T01:21:46;100956.74;;;19.57;56.11
79538;BME280;68989;52.032;5.152;2023-05-10T01:26:45;100961.05;;;19.59;56.12
79538;BME280;68989;52.032;5.152;2023-05-10T01:29:35;100962.02;;;19.59;56.17
79538;BME280;68989;52.032;5.152;2023-05-10T01:32:12;100966.89;;;19.60;56.25
79538;BME280;68989;52.032;5.152;2023-05-10T01:34:48;100965.77;;;19.61;56.21
79538;BME280;68989;52.032;5.152;2023-05-10T01:37:26;100965.17;;;19.61;56.26
79538;BME280;68989;52.032;5.152;2023-05-10T01:40:02;100962.64;;;19.60;56.31
79538;BME280;68989;52.032;5.152;2023-05-10T01:42:38;100963.66;;;19.61;56.25
79538;BME280;68989;52.032;5.152;2023-05-10T01:45:14;100965.65;;;19.62;56.23
79538;BME280;68989;52.032;5.152;2023-05-10T01:47:44;100968.01;;;19.61;56.28
79538;BME280;68989;52.032;5.152;2023-05-10T01:50:17;100973.66;;;19.62;56.22
79538;BME280;68989;52.032;5.152;2023-05-10T01:52:49;100979.08;;;19.62;56.21
79538;BME280;68989;52.032;5.152;2023-05-10T01:55:20;100975.55;;;19.63;56.18
79538;BME280;68989;52.032;5.152;2023-05-10T01:57:52;100974.00;;;19.63;56.20
79538;BME280;68989;52.032;5.152;2023-05-10T02:00:22;100978.58;;;19.62;56.20
79538;BME280;68989;52.032;5.152;2023-05-10T02:02:50;100980.29;;;19.61;56.22
79538;BME280;68989;52.032;5.152;2023-05-10T02:05:20;100983.76;;;19.61;56.17
79538;BME280;68989;52.032;5.152;2023-05-10T02:07:49;100984.33;;;19.61;56.09
79538;BME280;68989;52.032;5.152;2023-05-10T02:10:18;100985.00;;;19.60;56.18
79538;BME280;68989;52.032;5.152;2023-05-10T02:12:47;100984.48;;;19.60;56.30
79538;BME280;68989;52.032;5.152;2023-05-10T02:15:19;100987.16;;;19.59;56.16
79538;BME280;68989;52.032;5.152;2023-05-10T02:17:48;100987.61;;;19.59;56.23
79538;BME280;68989;52.032;5.152;2023-05-10T02:20:16;100984.24;;;19.58;56.20
79538;BME280;68989;52.032;5.152;2023-05-10T02:22:45;100989.81;;;19.57;56.21
79538;BME280;68989;52.032;5.152;2023-05-10T02:25:14;100994.51;;;19.56;56.27
79538;BME280;68989;52.032;5.152;2023-05-10T02:27:43;100997.79;;;19.56;56.27
79538;BME280;68989;52.032;5.152;2023-05-10T02:30:11;101000.60;;;19.56;56.28
79538;BME280;68989;52.032;5.152;2023-05-10T02:32:39;101002.16;;;19.57;56.22
79538;BME280;68989;52.032;5.152;2023-05-10T02:35:07;101001.46;;;19.57;56.32
79538;BME280;68989;52.032;5.152;2023-05-10T02:37:35;101003.03;;;19.57;56.26
79538;BME280;68989;52.032;5.152;2023-05-10T02:40:05;101000.11;;;19.57;56.12
79538;BME280;68989;52.032;5.152;2023-05-10T02:42:35;101000.99;;;19.56;56.17
79538;BME280;68989;52.032;5.152;2023-05-10T02:45:07;101001.44;;;19.57;56.18
79538;BME280;68989;52.032;5.152;2023-05-10T02:47:35;101005.25;;;19.56;56.18
79538;BME280;68989;52.032;5.152;2023-05-10T02:50:03;101006.45;;;19.55;56.26
79538;BME280;68989;52.032;5.152;2023-05-10T02:52:38;101007.31;;;19.55;56.20
79538;BME280;68989;52.032;5.152;2023-05-10T02:55:09;101004.27;;;19.54;56.30
79538;BME280;68989;52.032;5.152;2023-05-10T02:57:43;101005.99;;;19.54;56.36
79538;BME280;68989;52.032;5.152;2023-05-10T03:00:13;101007.70;;;19.53;56.35
79538;BME280;68989;52.032;5.152;2023-05-10T03:02:40;101008.97;;;19.53;56.31
79538;BME280;68989;52.032;5.152;2023-05-10T03:05:08;101011.13;;;19.54;56.31
79538;BME280;68989;52.032;5.152;2023-05-10T03:07:35;101012.18;;;19.53;56.29
79538;BME280;68989;52.032;5.152;2023-05-10T03:10:04;101011.88;;;19.54;56.36
79538;BME280;68989;52.032;5.152;2023-05-10T03:12:43;101011.59;;;19.54;56.29
79538;BME280;68989;52.032;5.152;2023-05-10T03:15:22;101009.85;;;19.54;56.29
79538;BME280;68989;52.032;5.152;2023-05-10T03:17:55;101011.39;;;19.54;56.30
79538;BME280;68989;52.032;5.152;2023-05-10T03:20:26;101009.84;;;19.55;56.24
79538;BME280;68989;52.032;5.152;2023-05-10T03:23:00;101011.52;;;19.55;56.24
79538;BME280;68989;52.032;5.152;2023-05-10T03:25:29;101013.64;;;19.54;56.37
79538;BME280;68989;52.032;5.152;2023-05-10T03:27:58;101018.30;;;19.54;56.43
79538;BME280;68989;52.032;5.152;2023-05-10T03:30:26;101016.93;;;19.53;56.37
79538;BME280;68989;52.032;5.152;2023-05-10T03:32:53;101017.86;;;19.53;56.41
79538;BME280;68989;52.032;5.152;2023-05-10T03:35:20;101020.07;;;19.52;56.38
79538;BME280;68989;52.032;5.152;2023-05-10T03:37:47;101020.50;;;19.52;56.44
79538;BME280;68989;52.032;5.152;2023-05-10T03:40:15;101017.12;;;19.52;56.38
79538;BME280;68989;52.032;5.152;2023-05-10T03:42:42;101020.02;;;19.52;56.41
79538;BME280;68989;52.032;5.152;2023-05-10T03:45:09;101020.07;;;19.52;56.41
79538;BME280;68989;52.032;5.152;2023-05-10T03:47:36;101021.88;;;19.51;56.43
79538;BME280;68989;52.032;5.152;2023-05-10T03:50:05;101018.27;;;19.51;56.53
79538;BME280;68989;52.032;5.152;2023-05-10T03:52:32;101018.39;;;19.51;56.57
79538;BME280;68989;52.032;5.152;2023-05-10T03:54:59;101019.77;;;19.50;56.57
79538;BME280;68989;52.032;5.152;2023-05-10T03:57:26;101022.16;;;19.49;56.52
79538;BME280;68989;52.032;5.152;2023-05-10T03:59:54;101022.86;;;19.48;56.56
79538;BME280;68989;52.032;5.152;2023-05-10T04:02:21;101021.31;;;19.48;56.55
79538;BME280;68989;52.032;5.152;2023-05-10T04:04:48;101022.20;;;19.49;56.52
79538;BME280;68989;52.032;5.152;2023-05-10T04:07:14;101025.85;;;19.50;56.50
79538;BME280;68989;52.032;5.152;2023-05-10T04:09:41;101027.48;;;19.50;56.43
79538;BME280;68989;52.032;5.152;2023-05-10T04:12:08;101027.49;;;19.50;56.47
79538;BME280;68989;52.032;5.152;2023-05-10T04:14:36;101028.33;;;19.50;56.53
79538;BME280;68989;52.032;5.152;2023-05-10T04:17:03;101025.20;;;19.50;56.52
79538;BME280;68989;52.032;5.152;2023-05-10T04:19:30;101027.74;;;19.51;56.53
79538;BME280;68989;52.032;5.152;2023-05-10T04:21:57;101025.64;;;19.51;56.49
79538;BME280;68989;52.032;5.152;2023-05-10T04:24:24;101030.34;;;19.51;56.49
79538;BME280;68989;52.032;5.152;2023-05-10T04:26:53;101035.35;;;19.52;56.48
79538;BME280;68989;52.032;5.152;2023-05-10T04:29:21;101033.80;;;19.52;56.51
79538;BME280;68989;52.032;5.152;2023-05-10T04:31:47;101026.94;;;19.53;56.47
79538;BME280;68989;52.032;5.152;2023-05-10T04:34:14;101028.56;;;19.53;56.47
79538;BME280;68989;52.032;5.152;2023-05-10T04:36:41;101029.63;;;19.54;56.56
79538;BME280;68989;52.032;5.152;2023-05-10T04:39:08;101031.03;;;19.54;56.51
79538;BME280;68989;52.032;5.152;2023-05-10T04:41:35;101030.40;;;19.54;56.54
79538;BME280;68989;52.032;5.152;2023-05-10T04:44:04;101026.93;;;19.54;56.56
79538;BME280;68989;52.032;5.152;2023-05-10T04:46:31;101024.89;;;19.54;56.56
79538;BME280;68989;52.032;5.152;2023-05-10T04:48:58;101026.57;;;19.55;56.59
79538;BME280;68989;52.032;5.152;2023-05-10T04:51:25;101026.82;;;19.55;56.62
79538;BME280;68989;52.032;5.152;2023-05-10T04:53:51;101031.48;;;19.56;56.65
79538;BME280;68989;52.032;5.152;2023-05-10T04:56:19;101035.17;;;19.57;56.53
79538;BME280;68989;52.032;5.152;2023-05-10T04:58:45;101037.61;;;19.58;56.55
79538;BME280;68989;52.032;5.152;2023-05-10T05:01:13;101039.00;;;19.59;56.50
79538;BME280;68989;52.032;5.152;2023-05-10T05:03:40;101043.11;;;19.59;56.58
79538;BME280;68989;52.032;5.152;2023-05-10T05:06:07;101048.16;;;19.59;56.62
79538;BME280;68989;52.032;5.152;2023-05-10T05:08:34;101052.69;;;19.59;56.56
79538;BME280;68989;52.032;5.152;2023-05-10T05:11:01;101054.03;;;19.59;56.55
79538;BME280;68989;52.032;5.152;2023-05-10T05:13:27;101056.13;;;19.59;56.58
79538;BME280;68989;52.032;5.152;2023-05-10T05:15:55;101052.21;;;19.59;56.56
79538;BME280;68989;52.032;5.152;2023-05-10T05:18:22;101055.21;;;19.59;56.59
79538;BME280;68989;52.032;5.152;2023-05-10T05:20:49;101059.99;;;19.59;56.62
79538;BME280;68989;52.032;5.152;2023-05-10T05:23:16;101062.21;;;19.59;56.66
79538;BME280;68989;52.032;5.152;2023-05-10T05:25:44;101064.83;;;19.59;56.63
79538;BME280;68989;52.032;5.152;2023-05-10T05:28:11;101068.07;;;19.60;56.58
79538;BME280;68989;52.032;5.152;2023-05-10T05:30:38;101070.02;;;19.61;56.62
79538;BME280;68989;52.032;5.152;2023-05-10T05:33:05;101072.72;;;19.61;56.68
79538;BME280;68989;52.032;5.152;2023-05-10T05:35:32;101076.45;;;19.61;56.73
79538;BME280;68989;52.032;5.152;2023-05-10T05:38:00;101078.83;;;19.60;56.74
79538;BME280;68989;52.032;5.152;2023-05-10T05:40:27;101083.44;;;19.59;56.74
79538;BME280;68989;52.032;5.152;2023-05-10T05:42:54;101085.85;;;19.58;56.83
79538;BME280;68989;52.032;5.152;2023-05-10T05:45:21;101086.86;;;19.57;56.81
79538;BME280;68989;52.032;5.152;2023-05-10T05:47:48;101091.50;;;19.56;56.80
79538;BME280;68989;52.032;5.152;2023-05-10T05:50:15;101094.83;;;19.56;56.77
79538;BME280;68989;52.032;5.152;2023-05-10T05:52:42;101097.76;;;19.56;56.80
79538;BME280;68989;52.032;5.152;2023-05-10T05:55:09;101098.05;;;19.55;56.72
79538;BME280;68989;52.032;5.152;2023-05-10T05:57:36;101101.27;;;19.55;56.73
79538;BME280;68989;52.032;5.152;2023-05-10T06:00:05;101100.33;;;19.55;56.75
79538;BME280;68989;52.032;5.152;2023-05-10T06:02:32;101101.36;;;19.54;56.77
79538;BME280;68989;52.032;5.152;2023-05-10T06:04:59;101105.44;;;19.54;56.83
79538;BME280;68989;52.032;5.152;2023-05-10T06:07:26;101110.47;;;19.55;56.76
79538;BME280;68989;52.032;5.152;2023-05-10T06:09:52;101108.57;;;19.56;56.80
79538;BME280;68989;52.032;5.152;2023-05-10T06:12:20;101110.95;;;19.57;56.69
79538;BME280;68989;52.032;5.152;2023-05-10T06:14:47;101111.42;;;19.57;56.74
79538;BME280;68989;52.032;5.152;2023-05-10T06:17:14;101112.68;;;19.58;56.71
79538;BME280;68989;52.032;5.152;2023-05-10T06:19:41;101111.38;;;19.60;56.74
79538;BME280;68989;52.032;5.152;2023-05-10T06:22:08;101113.95;;;19.64;56.71
79538;BME280;68989;52.032;5.152;2023-05-10T06:24:34;101116.54;;;19.67;56.71
79538;BME280;68989;52.032;5.152;2023-05-10T06:27:01;101120.73;;;19.69;56.72
79538;BME280;68989;52.032;5.152;2023-05-10T06:29:29;101120.55;;;19.71;56.70
79538;BME280;68989;52.032;5.152;2023-05-10T06:31:56;101121.58;;;19.73;56.65
79538;BME280;68989;52.032;5.152;2023-05-10T06:34:23;101122.27;;;19.74;56.54
79538;BME280;68989;52.032;5.152;2023-05-10T06:36:50;101125.84;;;19.74;56.54
79538;BME280;68989;52.032;5.152;2023-05-10T06:39:17;101126.35;;;19.76;56.58
79538;BME280;68989;52.032;5.152;2023-05-10T06:41:44;101129.22;;;19.76;56.70
79538;BME280;68989;52.032;5.152;2023-05-10T06:44:11;101130.05;;;19.78;56.61
79538;BME280;68989;52.032;5.152;2023-05-10T06:46:38;101129.62;;;19.79;56.53
79538;BME280;68989;52.032;5.152;2023-05-10T06:49:05;101132.76;;;19.81;56.69
79538;BME280;68989;52.032;5.152;2023-05-10T06:51:32;101133.42;;;19.84;56.62
79538;BME280;68989;52.032;5.152;2023-05-10T06:54:00;101132.46;;;19.88;56.72
79538;BME280;68989;52.032;5.152;2023-05-10T06:56:27;101139.53;;;19.90;56.75
79538;BME280;68989;52.032;5.152;2023-05-10T06:58:54;101140.29;;;19.93;56.81
79538;BME280;68989;52.032;5.152;2023-05-10T07:01:21;101144.82;;;19.95;56.56
79538;BME280;68989;52.032;5.152;2023-05-10T07:03:48;101142.09;;;19.98;56.50
79538;BME280;68989;52.032;5.152;2023-05-10T07:06:15;101143.13;;;20.01;56.52
79538;BME280;68989;52.032;5.152;2023-05-10T07:08:42;101144.81;;;20.06;56.78
79538;BME280;68989;52.032;5.152;2023-05-10T07:11:09;101145.12;;;20.10;56.95
79538;BME280;68989;52.032;5.152;2023-05-10T07:13:36;101148.25;;;20.16;56.60
79538;BME280;68989;52.032;5.152;2023-05-10T07:16:03;101148.67;;;20.22;56.83
79538;BME280;68989;52.032;5.152;2023-05-10T07:18:30;101150.75;;;20.29;57.01
79538;BME280;68989;52.032;5.152;2023-05-10T07:20:57;101152.91;;;20.35;57.02
79538;BME280;68989;52.032;5.152;2023-05-10T07:23:24;101152.91;;;20.39;56.41
79538;BME280;68989;52.032;5.152;2023-05-10T07:25:52;101153.61;;;20.44;56.10
79538;BME280;68989;52.032;5.152;2023-05-10T07:28:19;101158.43;;;20.47;56.41
79538;BME280;68989;52.032;5.152;2023-05-10T07:30:46;101162.95;;;20.51;56.56
79538;BME280;68989;52.032;5.152;2023-05-10T07:33:14;101166.37;;;20.53;56.45
79538;BME280;68989;52.032;5.152;2023-05-10T07:35:42;101165.33;;;20.55;55.85
79538;BME280;68989;52.032;5.152;2023-05-10T07:38:09;101166.80;;;20.56;55.50
79538;BME280;68989;52.032;5.152;2023-05-10T07:40:36;101168.83;;;20.57;55.01
79538;BME280;68989;52.032;5.152;2023-05-10T07:43:03;101171.03;;;20.58;55.49
79538;BME280;68989;52.032;5.152;2023-05-10T07:45:30;101168.57;;;20.58;55.49
79538;BME280;68989;52.032;5.152;2023-05-10T07:47:57;101166.00;;;20.58;55.31
79538;BME280;68989;52.032;5.152;2023-05-10T07:50:24;101170.71;;;20.59;55.65
79538;BME280;68989;52.032;5.152;2023-05-10T07:52:51;101172.26;;;20.60;55.59
79538;BME280;68989;52.032;5.152;2023-05-10T07:55:19;101177.25;;;20.61;55.96
79538;BME280;68989;52.032;5.152;2023-05-10T07:57:46;101174.57;;;20.64;56.22
79538;BME280;68989;52.032;5.152;2023-05-10T08:00:17;101174.87;;;20.67;55.53
79538;BME280;68989;52.032;5.152;2023-05-10T08:02:45;101174.48;;;20.70;55.98
79538;BME280;68989;52.032;5.152;2023-05-10T08:05:12;101177.96;;;20.74;55.77
79538;BME280;68989;52.032;5.152;2023-05-10T08:07:40;101183.55;;;20.78;55.79
79538;BME280;68989;52.032;5.152;2023-05-10T08:10:08;101184.77;;;20.82;55.98
79538;BME280;68989;52.032;5.152;2023-05-10T08:12:35;101188.95;;;20.86;55.54
79538;BME280;68989;52.032;5.152;2023-05-10T08:15:03;101189.68;;;20.90;55.53
79538;BME280;68989;52.032;5.152;2023-05-10T08:17:30;101192.42;;;20.94;55.17
79538;BME280;68989;52.032;5.152;2023-05-10T08:19:57;101197.25;;;20.99;55.42
79538;BME280;68989;52.032;5.152;2023-05-10T08:22:24;101195.11;;;21.03;55.10
79538;BME280;68989;52.032;5.152;2023-05-10T08:24:52;101198.80;;;21.07;55.31
79538;BME280;68989;52.032;5.152;2023-05-10T08:27:19;101204.36;;;21.10;54.89
79538;BME280;68989;52.032;5.152;2023-05-10T08:29:45;101213.66;;;21.14;54.74
79538;BME280;68989;52.032;5.152;2023-05-10T08:32:13;101218.31;;;21.16;54.30
79538;BME280;68989;52.032;5.152;2023-05-10T08:34:39;101220.97;;;21.16;54.07
79538;BME280;68989;52.032;5.152;2023-05-10T08:37:07;101226.14;;;21.16;54.05
79538;BME280;68989;52.032;5.152;2023-05-10T08:39:34;101227.97;;;21.14;53.50
79538;BME280;68989;52.032;5.152;2023-05-10T08:42:03;101231.00;;;21.11;53.52
79538;BME280;68989;52.032;5.152;2023-05-10T08:44:32;101232.66;;;21.09;53.64
79538;BME280;68989;52.032;5.152;2023-05-10T08:47:05;101236.53;;;21.06;53.64
79538;BME280;68989;52.032;5.152;2023-05-10T08:49:33;101238.94;;;21.04;53.64
79538;BME280;68989;52.032;5.152;2023-05-10T08:52:03;101243.10;;;21.03;53.58
79538;BME280;68989;52.032;5.152;2023-05-10T08:54:31;101241.09;;;21.04;53.81
79538;BME280;68989;52.032;5.152;2023-05-10T08:56:58;101241.90;;;21.06;53.92
79538;BME280;68989;52.032;5.152;2023-05-10T08:59:26;101237.67;;;21.09;54.10
79538;BME280;68989;52.032;5.152;2023-05-10T09:01:54;101238.28;;;21.14;54.13
79538;BME280;68989;52.032;5.152;2023-05-10T09:04:22;101241.21;;;21.20;54.22
79538;BME280;68989;52.032;5.152;2023-05-10T09:06:49;101240.87;;;21.27;54.49
79538;BME280;68989;52.032;5.152;2023-05-10T09:09:17;101241.13;;;21.36;54.57
79538;BME280;68989;52.032;5.152;2023-05-10T09:11:44;101239.41;;;21.47;55.01
79538;BME280;68989;52.032;5.152;2023-05-10T09:14:12;101240.79;;;21.61;55.17
79538;BME280;68989;52.032;5.152;2023-05-10T09:16:40;101243.29;;;21.76;55.24
79538;BME280;68989;52.032;5.152;2023-05-10T09:19:07;101244.81;;;21.90;54.70
79538;BME280;68989;52.032;5.152;2023-05-10T09:21:35;101247.58;;;22.05;54.80
79538;BME280;68989;52.032;5.152;2023-05-10T09:24:03;101250.19;;;22.20;54.41
79538;BME280;68989;52.032;5.152;2023-05-10T09:26:30;101250.27;;;22.37;54.71
79538;BME280;68989;52.032;5.152;2023-05-10T09:28:58;101250.04;;;22.54;54.86
79538;BME280;68989;52.032;5.152;2023-05-10T09:31:44;101251.64;;;22.73;54.87
79538;BME280;68989;52.032;5.152;2023-05-10T09:34:11;101248.42;;;22.92;53.61
79538;BME280;68989;52.032;5.152;2023-05-10T09:36:51;101247.72;;;23.10;53.37
79538;BME280;68989;52.032;5.152;2023-05-10T09:39:18;101248.06;;;23.24;52.69
79538;BME280;68989;52.032;5.152;2023-05-10T09:41:44;101251.20;;;23.37;52.52
79538;BME280;68989;52.032;5.152;2023-05-10T09:44:11;101255.11;;;23.48;51.39
79538;BME280;68989;52.032;5.152;2023-05-10T09:46:38;101254.52;;;23.54;51.37
79538;BME280;68989;52.032;5.152;2023-05-10T09:49:05;101259.52;;;23.59;51.04
79538;BME280;68989;52.032;5.152;2023-05-10T09:51:34;101266.73;;;23.62;50.80
79538;BME280;68989;52.032;5.152;2023-05-10T09:54:10;101265.84;;;23.62;50.54
79538;BME280;68989;52.032;5.152;2023-05-10T09:56:38;101268.44;;;23.60;50.47
79538;BME280;68989;52.032;5.152;2023-05-10T09:59:06;101271.29;;;23.57;50.12
79538;BME280;68989;52.032;5.152;2023-05-10T10:01:33;101273.66;;;23.52;50.19
79538;BME280;68989;52.032;5.152;2023-05-10T10:04:03;101277.35;;;23.47;49.93
79538;BME280;68989;52.032;5.152;2023-05-10T10:06:35;101277.72;;;23.40;49.77
79538;BME280;68989;52.032;5.152;2023-05-10T10:09:02;101279.02;;;23.34;49.56
79538;BME280;68989;52.032;5.152;2023-05-10T10:11:29;101279.46;;;23.30;50.03
79538;BME280;68989;52.032;5.152;2023-05-10T10:13:56;101279.70;;;23.28;49.99
79538;BME280;68989;52.032;5.152;2023-05-10T10:16:24;101282.22;;;23.31;50.55
79538;BME280;68989;52.032;5.152;2023-05-10T10:18:52;101283.93;;;23.38;50.90
79538;BME280;68989;52.032;5.152;2023-05-10T10:21:19;101285.50;;;23.49;51.04
79538;BME280;68989;52.032;5.152;2023-05-10T10:23:46;101290.92;;;23.57;50.75
79538;BME280;68989;52.032;5.152;2023-05-10T10:26:14;101290.76;;;23.65;50.74
79538;BME280;68989;52.032;5.152;2023-05-10T10:28:47;101291.24;;;23.71;49.98
79538;BME280;68989;52.032;5.152;2023-05-10T10:31:24;101296.38;;;23.73;50.10
79538;BME280;68989;52.032;5.152;2023-05-10T10:34:00;101296.04;;;23.74;49.81
79538;BME280;68989;52.032;5.152;2023-05-10T10:36:28;101296.33;;;23.73;49.76
79538;BME280;68989;52.032;5.152;2023-05-10T10:38:58;101297.47;;;23.71;49.30
79538;BME280;68989;52.032;5.152;2023-05-10T10:41:30;101299.91;;;23.67;48.61
79538;BME280;68989;52.032;5.152;2023-05-10T10:45:12;101296.71;;;23.61;48.62
79538;BME280;68989;52.032;5.152;2023-05-10T10:47:39;101293.44;;;23.54;48.75
79538;BME280;68989;52.032;5.152;2023-05-10T10:50:07;101293.46;;;23.51;48.87
79538;BME280;68989;52.032;5.152;2023-05-10T10:52:35;101291.55;;;23.50;49.52
79538;BME280;68989;52.032;5.152;2023-05-10T10:55:06;101289.02;;;23.52;49.68
79538;BME280;68989;52.032;5.152;2023-05-10T10:57:42;101290.04;;;23.60;50.81
79538;BME280;68989;52.032;5.152;2023-05-10T11:00:27;101286.75;;;23.73;50.02
79538;BME280;68989;52.032;5.152;2023-05-10T11:02:57;101286.53;;;23.85;49.31
79538;BME280;68989;52.032;5.152;2023-05-10T11:05:33;101287.48;;;23.95;48.94
79538;BME280;68989;52.032;5.152;2023-05-10T11:08:07;101284.89;;;24.08;48.81
79538;BME280;68989;52.032;5.152;2023-05-10T11:10:35;101288.34;;;24.20;48.84
79538;BME280;68989;52.032;5.152;2023-05-10T11:13:04;101286.55;;;24.33;48.64
79538;BME280;68989;52.032;5.152;2023-05-10T11:15:33;101288.27;;;24.44;48.96
79538;BME280;68989;52.032;5.152;2023-05-10T11:18:16;101286.11;;;24.57;48.53
79538;BME280;68989;52.032;5.152;2023-05-10T11:20:45;101290.21;;;24.77;48.94
79538;BME280;68989;52.032;5.152;2023-05-10T11:23:16;101291.31;;;24.96;48.82
79538;BME280;68989;52.032;5.152;2023-05-10T11:25:44;101295.06;;;25.14;48.35
79538;BME280;68989;52.032;5.152;2023-05-10T11:28:12;101292.56;;;25.30;47.33
79538;BME280;68989;52.032;5.152;2023-05-10T11:30:40;101294.36;;;25.40;46.23
79538;BME280;68989;52.032;5.152;2023-05-10T11:33:08;101294.48;;;25.49;47.47
79538;BME280;68989;52.032;5.152;2023-05-10T11:35:39;101296.39;;;25.57;46.84
79538;BME280;68989;52.032;5.152;2023-05-10T11:38:07;101295.31;;;25.65;47.65
79538;BME280;68989;52.032;5.152;2023-05-10T11:40:34;101291.18;;;25.71;46.91
79538;BME280;68989;52.032;5.152;2023-05-10T11:43:02;101292.98;;;25.76;46.31
79538;BME280;68989;52.032;5.152;2023-05-10T11:45:31;101296.92;;;25.79;46.46
79538;BME280;68989;52.032;5.152;2023-05-10T11:47:59;101299.51;;;25.79;45.90
79538;BME280;68989;52.032;5.152;2023-05-10T11:50:26;101301.75;;;25.74;45.95
79538;BME280;68989;52.032;5.152;2023-05-10T11:52:55;101301.35;;;25.67;46.05
79538;BME280;68989;52.032;5.152;2023-05-10T11:55:23;101304.81;;;25.57;45.80
79538;BME280;68989;52.032;5.152;2023-05-10T11:57:52;101308.78;;;25.46;45.72
79538;BME280;68989;52.032;5.152;2023-05-10T12:00:20;101311.12;;;25.36;46.11
79538;BME280;68989;52.032;5.152;2023-05-10T12:02:47;101311.85;;;25.25;46.19
79538;BME280;68989;52.032;5.152;2023-05-10T12:05:14;101313.17;;;25.15;46.31
79538;BME280;68989;52.032;5.152;2023-05-10T12:07:42;101316.70;;;25.06;46.91
79538;BME280;68989;52.032;5.152;2023-05-10T12:10:10;101317.88;;;25.00;47.14
79538;BME280;68989;52.032;5.152;2023-05-10T12:12:39;101319.65;;;24.94;47.20
79538;BME280;68989;52.032;5.152;2023-05-10T12:15:11;101320.07;;;24.90;47.51
79538;BME280;68989;52.032;5.152;2023-05-10T12:17:38;101320.45;;;24.88;47.61
79538;BME280;68989;52.032;5.152;2023-05-10T12:20:14;101318.03;;;24.87;47.87
79538;BME280;68989;52.032;5.152;2023-05-10T12:22:43;101320.76;;;24.88;47.60
79538;BME280;68989;52.032;5.152;2023-05-10T12:25:10;101321.21;;;24.91;47.45
79538;BME280;68989;52.032;5.152;2023-05-10T12:27:37;101326.01;;;24.97;47.52
79538;BME280;68989;52.032;5.152;2023-05-10T12:30:05;101328.77;;;25.02;47.68
79538;BME280;68989;52.032;5.152;2023-05-10T12:32:40;101329.64;;;25.06;47.87
79538;BME280;68989;52.032;5.152;2023-05-10T12:35:08;101328.15;;;25.11;47.78
79538;BME280;68989;52.032;5.152;2023-05-10T12:37:35;101328.82;;;25.15;47.99
79538;BME280;68989;52.032;5.152;2023-05-10T12:40:02;101330.44;;;25.19;47.50
79538;BME280;68989;52.032;5.152;2023-05-10T12:42:30;101335.76;;;25.20;47.08
79538;BME280;68989;52.032;5.152;2023-05-10T12:44:56;101340.38;;;25.17;46.70
79538;BME280;68989;52.032;5.152;2023-05-10T12:47:23;101341.64;;;25.11;46.15
79538;BME280;68989;52.032;5.152;2023-05-10T12:49:50;101343.90;;;25.04;46.10
79538;BME280;68989;52.032;5.152;2023-05-10T12:52:17;101348.10;;;24.96;45.97
79538;BME280;68989;52.032;5.152;2023-05-10T12:54:43;101352.10;;;24.88;45.81
79538;BME280;68989;52.032;5.152;2023-05-10T12:57:10;101346.53;;;24.80;46.00
79538;BME280;68989;52.032;5.152;2023-05-10T12:59:37;101349.72;;;24.73;46.33
79538;BME280;68989;52.032;5.152;2023-05-10T13:02:04;101353.07;;;24.69;46.61